PWSweather.com
Personal Weather Stations
Station Observations
KOHCLEVE171
Cleveland, OH

Cleveland, OH

Lat: 41.48646164, Lon: -81.46408081

Elevation: 1059

Station Type:

High Low Average
Temperature 24.4°F-4.2°C 21.7°F-5.7°C 23.1°F-4.9°C
Dew Point 18.9°F-7.3°C 13.6°F-10.2°C 16.4°F-8.7°C
Winds 6.5 mph 10.5 kmh 0.9 mph 1.4 kmh 3.0 mph S4.8 kmh S
Wind Gusts 12.3 mph19.8 kmh 1.8 mph2.9 kmh 5.0 mph8.0 kmh
Humidity 86% 66% 75%
Pressure 30.37 in1028.4 mb 30.10 in1019.3 mb -
Precipitation 0.00 in0.0 mm - -
Hour Temp Dew Point Humidity Winds Wind Gusts Pressure Precip Precip Rate Daily Precip Total
12:04 AM 24.4°F-4.2°C 18.0°F-7.8°C 76% 3.1 mph NNW5.0 kmh NNW 6.3 mph10.1 kmh 30.10 in1019.3 mb 0.00 in0.0 mm 0.00 in0.0 mm 0.04 in1.0 mm
12:09 AM 24.4°F-4.2°C 18.0°F-7.8°C 76% 6.3 mph N10.1 kmh N 10.1 mph16.3 kmh 30.10 in1019.3 mb 0.00 in0.0 mm 0.00 in0.0 mm 0.04 in1.0 mm
12:14 AM 24.4°F-4.2°C 18.0°F-7.8°C 76% 3.4 mph NNW5.5 kmh NNW 6.0 mph9.7 kmh 30.10 in1019.3 mb 0.00 in0.0 mm 0.00 in0.0 mm 0.04 in1.0 mm
12:19 AM 24.4°F-4.2°C 18.9°F-7.3°C 79% 4.7 mph N7.6 kmh N 8.3 mph13.4 kmh 30.10 in1019.3 mb 0.00 in0.0 mm 0.00 in0.0 mm 0.04 in1.0 mm
12:24 AM 24.3°F-4.3°C 18.7°F-7.4°C 79% 2.9 mph N4.7 kmh N 5.4 mph8.7 kmh 30.10 in1019.3 mb 0.00 in0.0 mm 0.00 in0.0 mm 0.04 in1.0 mm
12:29 AM 24.3°F-4.3°C 19.0°F-7.2°C 80% 2.5 mph NNW4.0 kmh NNW 4.9 mph7.9 kmh 30.10 in1019.3 mb 0.00 in0.0 mm 0.00 in0.0 mm 0.04 in1.0 mm
12:34 AM 24.3°F-4.3°C 19.0°F-7.2°C 80% 2.9 mph N4.7 kmh N 4.7 mph7.6 kmh 30.10 in1019.3 mb 0.00 in0.0 mm 0.00 in0.0 mm 0.04 in1.0 mm
12:39 AM 24.3°F-4.3°C 19.0°F-7.2°C 80% 4.3 mph N6.9 kmh N 8.5 mph13.7 kmh 30.10 in1019.3 mb 0.00 in0.0 mm 0.00 in0.0 mm 0.04 in1.0 mm
12:44 AM 24.3°F-4.3°C 18.7°F-7.4°C 79% 4.3 mph N6.9 kmh N 10.5 mph16.9 kmh 30.10 in1019.3 mb 0.00 in0.0 mm 0.00 in0.0 mm 0.04 in1.0 mm
12:49 AM 24.3°F-4.3°C 18.1°F-7.7°C 77% 4.3 mph N6.9 kmh N 7.2 mph11.6 kmh 30.10 in1019.3 mb 0.00 in0.0 mm 0.00 in0.0 mm 0.04 in1.0 mm
12:54 AM 24.3°F-4.3°C 18.1°F-7.7°C 77% 2.9 mph NW4.7 kmh NW 7.4 mph11.9 kmh 30.10 in1019.3 mb 0.00 in0.0 mm 0.00 in0.0 mm 0.04 in1.0 mm
01:04 AM 24.4°F-4.2°C 18.0°F-7.8°C 76% 3.6 mph NNW5.8 kmh NNW 6.5 mph10.5 kmh 30.10 in1019.3 mb 0.00 in0.0 mm 0.00 in0.0 mm 0.00 in0.0 mm
01:09 AM 24.4°F-4.2°C 17.6°F-8.0°C 75% 3.1 mph N5.0 kmh N 6.9 mph11.1 kmh 30.10 in1019.3 mb 0.00 in0.0 mm 0.00 in0.0 mm 0.00 in0.0 mm
01:14 AM 24.4°F-4.2°C 17.6°F-8.0°C 75% 2.7 mph N4.3 kmh N 4.3 mph6.9 kmh 30.10 in1019.3 mb 0.00 in0.0 mm 0.00 in0.0 mm 0.00 in0.0 mm
01:19 AM 24.4°F-4.2°C 17.6°F-8.0°C 75% 3.6 mph N5.8 kmh N 7.2 mph11.6 kmh 30.10 in1019.3 mb 0.00 in0.0 mm 0.00 in0.0 mm 0.00 in0.0 mm
01:24 AM 24.4°F-4.2°C 17.6°F-8.0°C 75% 2.0 mph NNW3.2 kmh NNW 5.4 mph8.7 kmh 30.10 in1019.3 mb 0.00 in0.0 mm 0.00 in0.0 mm 0.00 in0.0 mm
01:29 AM 24.4°F-4.2°C 18.0°F-7.8°C 76% 3.4 mph N5.5 kmh N 5.6 mph9.0 kmh 30.10 in1019.3 mb 0.00 in0.0 mm 0.00 in0.0 mm 0.00 in0.0 mm
01:34 AM 24.4°F-4.2°C 18.0°F-7.8°C 76% 2.7 mph N4.3 kmh N 5.1 mph8.2 kmh 30.10 in1019.3 mb 0.00 in0.0 mm 0.00 in0.0 mm 0.00 in0.0 mm
01:39 AM 24.4°F-4.2°C 18.3°F-7.6°C 77% 3.1 mph N5.0 kmh N 5.8 mph9.3 kmh 30.10 in1019.3 mb 0.00 in0.0 mm 0.00 in0.0 mm 0.00 in0.0 mm
01:44 AM 24.4°F-4.2°C 18.3°F-7.6°C 77% 4.5 mph N7.2 kmh N 9.6 mph15.4 kmh 30.10 in1019.3 mb 0.00 in0.0 mm 0.00 in0.0 mm 0.00 in0.0 mm
01:49 AM 24.4°F-4.2°C 18.3°F-7.6°C 77% 3.4 mph N5.5 kmh N 4.7 mph7.6 kmh 30.10 in1019.3 mb 0.00 in0.0 mm 0.00 in0.0 mm 0.00 in0.0 mm
01:54 AM 24.4°F-4.2°C 18.9°F-7.3°C 79% 2.5 mph NNW4.0 kmh NNW 5.6 mph9.0 kmh 30.10 in1019.3 mb 0.00 in0.0 mm 0.00 in0.0 mm 0.00 in0.0 mm
01:59 AM 24.4°F-4.2°C 17.6°F-8.0°C 75% 5.1 mph N8.2 kmh N 7.6 mph12.2 kmh 30.10 in1019.3 mb 0.00 in0.0 mm 0.00 in0.0 mm 0.00 in0.0 mm
02:04 AM 24.4°F-4.2°C 18.0°F-7.8°C 76% 2.7 mph N4.3 kmh N 7.6 mph12.2 kmh 30.10 in1019.3 mb 0.00 in0.0 mm 0.00 in0.0 mm 0.00 in0.0 mm
02:09 AM 24.4°F-4.2°C 17.4°F-8.1°C 74% 5.1 mph NNW8.2 kmh NNW 7.8 mph12.6 kmh 30.10 in1019.3 mb 0.00 in0.0 mm 0.00 in0.0 mm 0.00 in0.0 mm
02:14 AM 24.4°F-4.2°C 17.4°F-8.1°C 74% 2.9 mph N4.7 kmh N 6.0 mph9.7 kmh 30.11 in1019.6 mb 0.00 in0.0 mm 0.00 in0.0 mm 0.00 in0.0 mm
02:19 AM 24.3°F-4.3°C 17.8°F-7.9°C 76% 2.9 mph NW4.7 kmh NW 7.6 mph12.2 kmh 30.11 in1019.6 mb 0.00 in0.0 mm 0.00 in0.0 mm 0.00 in0.0 mm
02:24 AM 24.3°F-4.3°C 17.8°F-7.9°C 76% 2.0 mph N3.2 kmh N 4.9 mph7.9 kmh 30.11 in1019.6 mb 0.00 in0.0 mm 0.00 in0.0 mm 0.00 in0.0 mm
02:29 AM 24.3°F-4.3°C 18.1°F-7.7°C 77% 2.2 mph NW3.5 kmh NW 3.8 mph6.1 kmh 30.11 in1019.6 mb 0.00 in0.0 mm 0.00 in0.0 mm 0.00 in0.0 mm
02:34 AM 24.1°F-4.4°C 18.0°F-7.8°C 77% 3.4 mph N5.5 kmh N 5.6 mph9.0 kmh 30.11 in1019.6 mb 0.00 in0.0 mm 0.00 in0.0 mm 0.00 in0.0 mm
02:39 AM 24.3°F-4.3°C 18.1°F-7.7°C 77% 4.5 mph N7.2 kmh N 10.1 mph16.3 kmh 30.11 in1019.6 mb 0.00 in0.0 mm 0.00 in0.0 mm 0.00 in0.0 mm
02:44 AM 24.1°F-4.4°C 17.6°F-8.0°C 76% 3.1 mph N5.0 kmh N 6.5 mph10.5 kmh 30.11 in1019.6 mb 0.00 in0.0 mm 0.00 in0.0 mm 0.00 in0.0 mm
02:49 AM 24.3°F-4.3°C 17.8°F-7.9°C 76% 3.8 mph N6.1 kmh N 5.8 mph9.3 kmh 30.11 in1019.6 mb 0.00 in0.0 mm 0.00 in0.0 mm 0.00 in0.0 mm
02:54 AM 24.1°F-4.4°C 17.6°F-8.0°C 76% 3.4 mph N5.5 kmh N 5.1 mph8.2 kmh 30.11 in1019.6 mb 0.00 in0.0 mm 0.00 in0.0 mm 0.00 in0.0 mm
02:59 AM 24.1°F-4.4°C 17.6°F-8.0°C 76% 3.6 mph N5.8 kmh N 5.8 mph9.3 kmh 30.12 in1020.0 mb 0.00 in0.0 mm 0.00 in0.0 mm 0.00 in0.0 mm
03:04 AM 23.9°F-4.5°C 17.4°F-8.1°C 76% 4.0 mph N6.4 kmh N 6.7 mph10.8 kmh 30.12 in1020.0 mb 0.00 in0.0 mm 0.00 in0.0 mm 0.00 in0.0 mm
03:09 AM 23.9°F-4.5°C 17.8°F-7.9°C 77% 4.5 mph N7.2 kmh N 6.3 mph10.1 kmh 30.12 in1020.0 mb 0.00 in0.0 mm 0.00 in0.0 mm 0.00 in0.0 mm
03:14 AM 23.9°F-4.5°C 18.3°F-7.6°C 79% 3.1 mph N5.0 kmh N 5.6 mph9.0 kmh 30.12 in1020.0 mb 0.00 in0.0 mm 0.00 in0.0 mm 0.00 in0.0 mm
03:19 AM 23.9°F-4.5°C 17.8°F-7.9°C 77% 5.1 mph N8.2 kmh N 8.3 mph13.4 kmh 30.12 in1020.0 mb 0.00 in0.0 mm 0.00 in0.0 mm 0.00 in0.0 mm
03:24 AM 23.9°F-4.5°C 17.8°F-7.9°C 77% 2.5 mph NE4.0 kmh NE 5.6 mph9.0 kmh 30.12 in1020.0 mb 0.00 in0.0 mm 0.00 in0.0 mm 0.00 in0.0 mm
03:29 AM 23.9°F-4.5°C 17.8°F-7.9°C 77% 2.2 mph NNE3.5 kmh NNE 4.0 mph6.4 kmh 30.12 in1020.0 mb 0.00 in0.0 mm 0.00 in0.0 mm 0.00 in0.0 mm
03:34 AM 23.9°F-4.5°C 18.3°F-7.6°C 79% 2.0 mph N3.2 kmh N 4.0 mph6.4 kmh 30.13 in1020.3 mb 0.00 in0.0 mm 0.00 in0.0 mm 0.00 in0.0 mm
03:39 AM 23.9°F-4.5°C 18.3°F-7.6°C 79% 4.7 mph N7.6 kmh N 7.6 mph12.2 kmh 30.13 in1020.3 mb 0.00 in0.0 mm 0.00 in0.0 mm 0.00 in0.0 mm
03:44 AM 23.7°F-4.6°C 17.6°F-8.0°C 77% 4.3 mph 6.9 kmh 6.7 mph10.8 kmh 30.13 in1020.3 mb 0.00 in0.0 mm 0.00 in0.0 mm 0.00 in0.0 mm
03:49 AM 23.9°F-4.5°C 17.8°F-7.9°C 77% 2.5 mph NNW4.0 kmh NNW 4.0 mph6.4 kmh 30.13 in1020.3 mb 0.00 in0.0 mm 0.00 in0.0 mm 0.00 in0.0 mm
03:54 AM 23.9°F-4.5°C 17.1°F-8.3°C 75% 4.7 mph N7.6 kmh N 6.7 mph10.8 kmh 30.13 in1020.3 mb 0.00 in0.0 mm 0.00 in0.0 mm 0.00 in0.0 mm
03:59 AM 23.7°F-4.6°C 17.2°F-8.2°C 76% 4.0 mph W6.4 kmh W 8.5 mph13.7 kmh 30.13 in1020.3 mb 0.00 in0.0 mm 0.00 in0.0 mm 0.00 in0.0 mm
04:04 AM 23.5°F-4.7°C 18.0°F-7.8°C 79% 2.9 mph N4.7 kmh N 5.4 mph8.7 kmh 30.13 in1020.3 mb 0.00 in0.0 mm 0.00 in0.0 mm 0.00 in0.0 mm
04:09 AM 23.7°F-4.6°C 17.6°F-8.0°C 77% 5.8 mph N9.3 kmh N 12.3 mph19.8 kmh 30.13 in1020.3 mb 0.00 in0.0 mm 0.00 in0.0 mm 0.00 in0.0 mm
04:14 AM 23.7°F-4.6°C 16.9°F-8.4°C 75% 3.8 mph N6.1 kmh N 7.4 mph11.9 kmh 30.13 in1020.3 mb 0.00 in0.0 mm 0.00 in0.0 mm 0.00 in0.0 mm
04:19 AM 23.7°F-4.6°C 16.9°F-8.4°C 75% 3.1 mph N5.0 kmh N 5.1 mph8.2 kmh 30.13 in1020.3 mb 0.00 in0.0 mm 0.00 in0.0 mm 0.00 in0.0 mm
04:24 AM 23.7°F-4.6°C 17.2°F-8.2°C 76% 2.7 mph N4.3 kmh N 4.0 mph6.4 kmh 30.13 in1020.3 mb 0.00 in0.0 mm 0.00 in0.0 mm 0.00 in0.0 mm
04:29 AM 23.7°F-4.6°C 17.2°F-8.2°C 76% 4.5 mph N7.2 kmh N 11.0 mph17.7 kmh 30.13 in1020.3 mb 0.00 in0.0 mm 0.00 in0.0 mm 0.00 in0.0 mm
04:34 AM 23.5°F-4.7°C 17.1°F-8.3°C 76% 2.5 mph N4.0 kmh N 3.8 mph6.1 kmh 30.13 in1020.3 mb 0.00 in0.0 mm 0.00 in0.0 mm 0.00 in0.0 mm
04:39 AM 23.5°F-4.7°C 17.1°F-8.3°C 76% 3.1 mph 5.0 kmh 5.1 mph8.2 kmh 30.14 in1020.7 mb 0.00 in0.0 mm 0.00 in0.0 mm 0.00 in0.0 mm
04:44 AM 23.5°F-4.7°C 17.1°F-8.3°C 76% 4.5 mph N7.2 kmh N 11.9 mph19.2 kmh 30.13 in1020.3 mb 0.00 in0.0 mm 0.00 in0.0 mm 0.00 in0.0 mm
04:49 AM 23.5°F-4.7°C 17.4°F-8.1°C 77% 5.1 mph N8.2 kmh N 7.8 mph12.6 kmh 30.14 in1020.7 mb 0.00 in0.0 mm 0.00 in0.0 mm 0.00 in0.0 mm
04:54 AM 23.5°F-4.7°C 17.4°F-8.1°C 77% 2.5 mph N4.0 kmh N 4.0 mph6.4 kmh 30.14 in1020.7 mb 0.00 in0.0 mm 0.00 in0.0 mm 0.00 in0.0 mm
04:59 AM 23.4°F-4.8°C 17.8°F-7.9°C 79% 2.5 mph NNW4.0 kmh NNW 4.7 mph7.6 kmh 30.14 in1020.7 mb 0.00 in0.0 mm 0.00 in0.0 mm 0.00 in0.0 mm
05:04 AM 23.4°F-4.8°C 17.2°F-8.2°C 77% 3.1 mph N5.0 kmh N 5.6 mph9.0 kmh 30.14 in1020.7 mb 0.00 in0.0 mm 0.00 in0.0 mm 0.00 in0.0 mm
05:09 AM 23.4°F-4.8°C 16.9°F-8.4°C 76% 2.0 mph N3.2 kmh N 4.0 mph6.4 kmh 30.14 in1020.7 mb 0.00 in0.0 mm 0.00 in0.0 mm 0.00 in0.0 mm
05:14 AM 23.4°F-4.8°C 17.2°F-8.2°C 77% 6.5 mph N10.5 kmh N 10.1 mph16.3 kmh 30.14 in1020.7 mb 0.00 in0.0 mm 0.00 in0.0 mm 0.00 in0.0 mm
05:19 AM 23.0°F-5.0°C 18.0°F-7.8°C 81% 4.5 mph N7.2 kmh N 9.4 mph15.1 kmh 30.14 in1020.7 mb 0.00 in0.0 mm 0.00 in0.0 mm 0.00 in0.0 mm
05:24 AM 22.6°F-5.2°C 18.9°F-7.3°C 85% 2.5 mph N4.0 kmh N 4.0 mph6.4 kmh 30.14 in1020.7 mb 0.00 in0.0 mm 0.00 in0.0 mm 0.00 in0.0 mm
05:29 AM 22.6°F-5.2°C 18.9°F-7.3°C 85% 3.6 mph 5.8 kmh 5.8 mph9.3 kmh 30.14 in1020.7 mb 0.00 in0.0 mm 0.00 in0.0 mm 0.00 in0.0 mm
05:34 AM 22.8°F-5.1°C 17.8°F-7.9°C 81% 3.1 mph N5.0 kmh N 4.5 mph7.2 kmh 30.14 in1020.7 mb 0.00 in0.0 mm 0.00 in0.0 mm 0.00 in0.0 mm
05:39 AM 22.8°F-5.1°C 17.6°F-8.0°C 80% 5.6 mph NNE9.0 kmh NNE 8.5 mph13.7 kmh 30.14 in1020.7 mb 0.00 in0.0 mm 0.00 in0.0 mm 0.00 in0.0 mm
05:44 AM 22.8°F-5.1°C 17.2°F-8.2°C 79% 3.4 mph N5.5 kmh N 5.4 mph8.7 kmh 30.14 in1020.7 mb 0.00 in0.0 mm 0.00 in0.0 mm 0.00 in0.0 mm
05:49 AM 22.8°F-5.1°C 17.2°F-8.2°C 79% 4.3 mph N6.9 kmh N 5.6 mph9.0 kmh 30.15 in1021.0 mb 0.00 in0.0 mm 0.00 in0.0 mm 0.00 in0.0 mm
05:54 AM 23.0°F-5.0°C 16.9°F-8.4°C 77% 3.4 mph N5.5 kmh N 4.9 mph7.9 kmh 30.15 in1021.0 mb 0.00 in0.0 mm 0.00 in0.0 mm 0.00 in0.0 mm
05:59 AM 22.8°F-5.1°C 16.7°F-8.5°C 77% 4.3 mph N6.9 kmh N 7.8 mph12.6 kmh 30.16 in1021.3 mb 0.00 in0.0 mm 0.00 in0.0 mm 0.00 in0.0 mm
06:04 AM 22.8°F-5.1°C 17.2°F-8.2°C 79% 3.6 mph N5.8 kmh N 6.0 mph9.7 kmh 30.16 in1021.3 mb 0.00 in0.0 mm 0.00 in0.0 mm 0.00 in0.0 mm
06:09 AM 22.6°F-5.2°C 17.4°F-8.1°C 80% 4.0 mph N6.4 kmh N 5.6 mph9.0 kmh 30.16 in1021.3 mb 0.00 in0.0 mm 0.00 in0.0 mm 0.00 in0.0 mm
06:14 AM 22.6°F-5.2°C 18.0°F-7.8°C 82% 1.8 mph N2.9 kmh N 4.5 mph7.2 kmh 30.16 in1021.3 mb 0.00 in0.0 mm 0.00 in0.0 mm 0.00 in0.0 mm
06:19 AM 22.5°F-5.3°C 18.7°F-7.4°C 85% 2.9 mph N4.7 kmh N 5.6 mph9.0 kmh 30.16 in1021.3 mb 0.00 in0.0 mm 0.00 in0.0 mm 0.00 in0.0 mm
06:24 AM 22.3°F-5.4°C 18.5°F-7.5°C 85% 1.6 mph NNE2.6 kmh NNE 2.2 mph3.5 kmh 30.16 in1021.3 mb 0.00 in0.0 mm 0.00 in0.0 mm 0.00 in0.0 mm
06:29 AM 22.3°F-5.4°C 18.5°F-7.5°C 85% 2.7 mph N4.3 kmh N 5.4 mph8.7 kmh 30.16 in1021.3 mb 0.00 in0.0 mm 0.00 in0.0 mm 0.00 in0.0 mm
06:34 AM 22.3°F-5.4°C 18.1°F-7.7°C 84% 1.6 mph NNE2.6 kmh NNE 3.8 mph6.1 kmh 30.16 in1021.3 mb 0.00 in0.0 mm 0.00 in0.0 mm 0.00 in0.0 mm
06:39 AM 22.3°F-5.4°C 18.1°F-7.7°C 84% 2.9 mph N4.7 kmh N 5.6 mph9.0 kmh 30.16 in1021.3 mb 0.00 in0.0 mm 0.00 in0.0 mm 0.00 in0.0 mm
06:44 AM 22.3°F-5.4°C 18.1°F-7.7°C 84% 2.2 mph NE3.5 kmh NE 4.5 mph7.2 kmh 30.16 in1021.3 mb 0.00 in0.0 mm 0.00 in0.0 mm 0.00 in0.0 mm
06:49 AM 22.3°F-5.4°C 18.5°F-7.5°C 85% 3.6 mph N5.8 kmh N 5.6 mph9.0 kmh 30.16 in1021.3 mb 0.00 in0.0 mm 0.00 in0.0 mm 0.00 in0.0 mm
06:54 AM 22.1°F-5.5°C 18.5°F-7.5°C 86% 2.9 mph N4.7 kmh N 5.4 mph8.7 kmh 30.16 in1021.3 mb 0.00 in0.0 mm 0.00 in0.0 mm 0.00 in0.0 mm
06:59 AM 22.1°F-5.5°C 18.5°F-7.5°C 86% 3.8 mph N6.1 kmh N 7.8 mph12.6 kmh 30.17 in1021.7 mb 0.00 in0.0 mm 0.00 in0.0 mm 0.00 in0.0 mm
07:04 AM 22.1°F-5.5°C 18.3°F-7.6°C 85% 3.8 mph N6.1 kmh N 6.0 mph9.7 kmh 30.16 in1021.3 mb 0.00 in0.0 mm 0.00 in0.0 mm 0.00 in0.0 mm
07:09 AM 22.1°F-5.5°C 18.3°F-7.6°C 85% 2.9 mph ENE4.7 kmh ENE 5.4 mph8.7 kmh 30.17 in1021.7 mb 0.00 in0.0 mm 0.00 in0.0 mm 0.00 in0.0 mm
07:14 AM 22.1°F-5.5°C 18.3°F-7.6°C 85% 3.6 mph N5.8 kmh N 6.7 mph10.8 kmh 30.17 in1021.7 mb 0.00 in0.0 mm 0.00 in0.0 mm 0.00 in0.0 mm
07:19 AM 22.1°F-5.5°C 18.3°F-7.6°C 85% 2.7 mph N4.3 kmh N 4.5 mph7.2 kmh 30.17 in1021.7 mb 0.00 in0.0 mm 0.00 in0.0 mm 0.00 in0.0 mm
07:24 AM 22.1°F-5.5°C 18.3°F-7.6°C 85% 2.5 mph N4.0 kmh N 4.0 mph6.4 kmh 30.17 in1021.7 mb 0.00 in0.0 mm 0.00 in0.0 mm 0.00 in0.0 mm
07:29 AM 22.1°F-5.5°C 18.3°F-7.6°C 85% 3.1 mph N5.0 kmh N 6.5 mph10.5 kmh 30.18 in1022.0 mb 0.00 in0.0 mm 0.00 in0.0 mm 0.00 in0.0 mm
07:34 AM 22.1°F-5.5°C 18.3°F-7.6°C 85% 2.9 mph N4.7 kmh N 4.7 mph7.6 kmh 30.17 in1021.7 mb 0.00 in0.0 mm 0.00 in0.0 mm 0.00 in0.0 mm
07:39 AM 22.3°F-5.4°C 17.6°F-8.0°C 82% 3.6 mph N5.8 kmh N 4.3 mph6.9 kmh 30.18 in1022.0 mb 0.00 in0.0 mm 0.00 in0.0 mm 0.00 in0.0 mm
07:44 AM 22.5°F-5.3°C 16.9°F-8.4°C 79% 2.7 mph N4.3 kmh N 3.6 mph5.8 kmh 30.18 in1022.0 mb 0.00 in0.0 mm 0.00 in0.0 mm 0.00 in0.0 mm
07:49 AM 22.6°F-5.2°C 16.5°F-8.6°C 77% 2.7 mph N4.3 kmh N 4.3 mph6.9 kmh 30.18 in1022.0 mb 0.00 in0.0 mm 0.00 in0.0 mm 0.00 in0.0 mm
07:54 AM 22.6°F-5.2°C 16.2°F-8.8°C 76% 4.0 mph N6.4 kmh N 6.3 mph10.1 kmh 30.18 in1022.0 mb 0.00 in0.0 mm 0.00 in0.0 mm 0.00 in0.0 mm
07:59 AM 22.5°F-5.3°C 16.3°F-8.7°C 77% 5.4 mph N8.7 kmh N 8.5 mph13.7 kmh 30.19 in1022.4 mb 0.00 in0.0 mm 0.00 in0.0 mm 0.00 in0.0 mm
08:04 AM 22.5°F-5.3°C 16.3°F-8.7°C 77% 3.6 mph N5.8 kmh N 6.0 mph9.7 kmh 30.19 in1022.4 mb 0.00 in0.0 mm 0.00 in0.0 mm 0.00 in0.0 mm
08:09 AM 22.5°F-5.3°C 16.0°F-8.9°C 76% 4.3 mph N6.9 kmh N 7.6 mph12.2 kmh 30.19 in1022.4 mb 0.00 in0.0 mm 0.00 in0.0 mm 0.00 in0.0 mm
08:14 AM 22.6°F-5.2°C 16.0°F-8.9°C 75% 2.7 mph N4.3 kmh N 4.3 mph6.9 kmh 30.19 in1022.4 mb 0.00 in0.0 mm 0.00 in0.0 mm 0.00 in0.0 mm
08:19 AM 22.6°F-5.2°C 16.0°F-8.9°C 75% 2.9 mph 4.7 kmh 4.0 mph6.4 kmh 30.19 in1022.4 mb 0.00 in0.0 mm 0.00 in0.0 mm 0.00 in0.0 mm
08:24 AM 22.6°F-5.2°C 15.6°F-9.1°C 74% 3.4 mph N5.5 kmh N 5.8 mph9.3 kmh 30.19 in1022.4 mb 0.00 in0.0 mm 0.00 in0.0 mm 0.00 in0.0 mm
08:29 AM 22.5°F-5.3°C 14.7°F-9.6°C 72% 4.7 mph 7.6 kmh 7.2 mph11.6 kmh 30.19 in1022.4 mb 0.00 in0.0 mm 0.00 in0.0 mm 0.00 in0.0 mm
08:34 AM 22.6°F-5.2°C 14.7°F-9.6°C 71% 3.4 mph NNE5.5 kmh NNE 5.1 mph8.2 kmh 30.20 in1022.7 mb 0.00 in0.0 mm 0.00 in0.0 mm 0.00 in0.0 mm
08:39 AM 22.6°F-5.2°C 14.4°F-9.8°C 70% 3.8 mph N6.1 kmh N 6.0 mph9.7 kmh 30.20 in1022.7 mb 0.00 in0.0 mm 0.00 in0.0 mm 0.00 in0.0 mm
08:44 AM 22.5°F-5.3°C 15.4°F-9.2°C 74% 4.5 mph N7.2 kmh N 7.8 mph12.6 kmh 30.20 in1022.7 mb 0.00 in0.0 mm 0.00 in0.0 mm 0.00 in0.0 mm
08:49 AM 22.3°F-5.4°C 16.7°F-8.5°C 79% 3.1 mph N5.0 kmh N 4.7 mph7.6 kmh 30.21 in1023.0 mb 0.00 in0.0 mm 0.00 in0.0 mm 0.00 in0.0 mm
08:54 AM 21.9°F-5.6°C 16.7°F-8.5°C 80% 4.5 mph 7.2 kmh 7.8 mph12.6 kmh 30.21 in1023.0 mb 0.00 in0.0 mm 0.00 in0.0 mm 0.00 in0.0 mm
08:59 AM 21.9°F-5.6°C 17.1°F-8.3°C 81% 3.4 mph N5.5 kmh N 5.4 mph8.7 kmh 30.21 in1023.0 mb 0.00 in0.0 mm 0.00 in0.0 mm 0.00 in0.0 mm
09:04 AM 21.7°F-5.7°C 16.5°F-8.6°C 80% 2.9 mph N4.7 kmh N 6.0 mph9.7 kmh 30.21 in1023.0 mb 0.00 in0.0 mm 0.00 in0.0 mm 0.00 in0.0 mm
09:09 AM 21.7°F-5.7°C 15.6°F-9.1°C 77% 2.5 mph N4.0 kmh N 4.5 mph7.2 kmh 30.22 in1023.4 mb 0.00 in0.0 mm 0.00 in0.0 mm 0.00 in0.0 mm
09:14 AM 21.9°F-5.6°C 15.8°F-9.0°C 77% 3.6 mph N5.8 kmh N 6.0 mph9.7 kmh 30.22 in1023.4 mb 0.00 in0.0 mm 0.00 in0.0 mm 0.00 in0.0 mm
09:24 AM 22.1°F-5.5°C 15.6°F-9.1°C 76% 3.4 mph N5.5 kmh N 6.7 mph10.8 kmh 30.22 in1023.4 mb 0.00 in0.0 mm 0.00 in0.0 mm 0.00 in0.0 mm
09:29 AM 22.1°F-5.5°C 15.4°F-9.2°C 75% 2.5 mph 4.0 kmh 5.4 mph8.7 kmh 30.22 in1023.4 mb 0.00 in0.0 mm 0.00 in0.0 mm 0.00 in0.0 mm
09:34 AM 22.3°F-5.4°C 15.3°F-9.3°C 74% 2.7 mph N4.3 kmh N 4.0 mph6.4 kmh 30.22 in1023.4 mb 0.00 in0.0 mm 0.00 in0.0 mm 0.00 in0.0 mm
09:39 AM 22.3°F-5.4°C 15.3°F-9.3°C 74% 2.2 mph N3.5 kmh N 4.3 mph6.9 kmh 30.22 in1023.4 mb 0.00 in0.0 mm 0.00 in0.0 mm 0.00 in0.0 mm
09:44 AM 22.3°F-5.4°C 15.8°F-9.0°C 76% 3.1 mph NNE5.0 kmh NNE 6.7 mph10.8 kmh 30.23 in1023.7 mb 0.00 in0.0 mm 0.00 in0.0 mm 0.00 in0.0 mm
09:49 AM 22.3°F-5.4°C 15.6°F-9.1°C 75% 5.4 mph NNW8.7 kmh NNW 7.8 mph12.6 kmh 30.23 in1023.7 mb 0.00 in0.0 mm 0.00 in0.0 mm 0.00 in0.0 mm
09:54 AM 22.3°F-5.4°C 15.6°F-9.1°C 75% 3.1 mph NNE5.0 kmh NNE 4.5 mph7.2 kmh 30.23 in1023.7 mb 0.00 in0.0 mm 0.00 in0.0 mm 0.00 in0.0 mm
09:59 AM 22.5°F-5.3°C 14.7°F-9.6°C 72% 3.6 mph N5.8 kmh N 6.7 mph10.8 kmh 30.23 in1023.7 mb 0.00 in0.0 mm 0.00 in0.0 mm 0.00 in0.0 mm
10:03 AM 22.5°F-5.3°C 14.7°F-9.6°C 72% 4.5 mph N7.2 kmh N 6.5 mph10.5 kmh 30.24 in1024.0 mb 0.00 in0.0 mm 0.00 in0.0 mm 0.00 in0.0 mm
10:09 AM 22.6°F-5.2°C 14.9°F-9.5°C 72% 2.7 mph N4.3 kmh N 6.0 mph9.7 kmh 30.24 in1024.0 mb 0.00 in0.0 mm 0.00 in0.0 mm 0.00 in0.0 mm
10:14 AM 22.6°F-5.2°C 14.9°F-9.5°C 72% 4.9 mph N7.9 kmh N 6.7 mph10.8 kmh 30.24 in1024.0 mb 0.00 in0.0 mm 0.00 in0.0 mm 0.00 in0.0 mm
10:19 AM 22.6°F-5.2°C 16.2°F-8.8°C 76% 3.6 mph 5.8 kmh 6.7 mph10.8 kmh 30.24 in1024.0 mb 0.00 in0.0 mm 0.00 in0.0 mm 0.00 in0.0 mm
10:24 AM 22.5°F-5.3°C 16.9°F-8.4°C 79% 3.6 mph NNE5.8 kmh NNE 4.7 mph7.6 kmh 30.24 in1024.0 mb 0.00 in0.0 mm 0.00 in0.0 mm 0.00 in0.0 mm
10:29 AM 22.5°F-5.3°C 16.9°F-8.4°C 79% 2.9 mph NNE4.7 kmh NNE 4.3 mph6.9 kmh 30.25 in1024.4 mb 0.00 in0.0 mm 0.00 in0.0 mm 0.00 in0.0 mm
10:34 AM 22.3°F-5.4°C 16.7°F-8.5°C 79% 4.5 mph N7.2 kmh N 6.7 mph10.8 kmh 30.25 in1024.4 mb 0.00 in0.0 mm 0.00 in0.0 mm 0.00 in0.0 mm
10:39 AM 22.3°F-5.4°C 16.2°F-8.8°C 77% 4.5 mph N7.2 kmh N 5.6 mph9.0 kmh 30.26 in1024.7 mb 0.00 in0.0 mm 0.00 in0.0 mm 0.00 in0.0 mm
10:44 AM 22.3°F-5.4°C 15.8°F-9.0°C 76% 3.6 mph N5.8 kmh N 5.4 mph8.7 kmh 30.26 in1024.7 mb 0.00 in0.0 mm 0.00 in0.0 mm 0.00 in0.0 mm
10:49 AM 22.5°F-5.3°C 16.0°F-8.9°C 76% 2.2 mph NNE3.5 kmh NNE 3.1 mph5.0 kmh 30.26 in1024.7 mb 0.00 in0.0 mm 0.00 in0.0 mm 0.00 in0.0 mm
10:54 AM 22.6°F-5.2°C 15.6°F-9.1°C 74% 1.8 mph N2.9 kmh N 4.0 mph6.4 kmh 30.27 in1025.1 mb 0.00 in0.0 mm 0.00 in0.0 mm 0.00 in0.0 mm
10:59 AM 22.6°F-5.2°C 14.4°F-9.8°C 70% 2.5 mph N4.0 kmh N 3.6 mph5.8 kmh 30.27 in1025.1 mb 0.00 in0.0 mm 0.00 in0.0 mm 0.00 in0.0 mm
11:04 AM 22.8°F-5.1°C 14.5°F-9.7°C 70% 2.5 mph N4.0 kmh N 3.6 mph5.8 kmh 30.26 in1024.7 mb 0.00 in0.0 mm 0.00 in0.0 mm 0.00 in0.0 mm
11:09 AM 22.6°F-5.2°C 13.6°F-10.2°C 68% 4.7 mph N7.6 kmh N 7.6 mph12.2 kmh 30.27 in1025.1 mb 0.00 in0.0 mm 0.00 in0.0 mm 0.00 in0.0 mm
11:14 AM 22.6°F-5.2°C 14.0°F-10.0°C 69% 4.5 mph N7.2 kmh N 7.6 mph12.2 kmh 30.27 in1025.1 mb 0.00 in0.0 mm 0.00 in0.0 mm 0.00 in0.0 mm
11:19 AM 22.6°F-5.2°C 14.4°F-9.8°C 70% 5.4 mph N8.7 kmh N 8.1 mph13.0 kmh 30.27 in1025.1 mb 0.00 in0.0 mm 0.00 in0.0 mm 0.00 in0.0 mm
11:24 AM 22.6°F-5.2°C 14.4°F-9.8°C 70% 3.6 mph NNE5.8 kmh NNE 5.8 mph9.3 kmh 30.27 in1025.1 mb 0.00 in0.0 mm 0.00 in0.0 mm 0.00 in0.0 mm
11:29 AM 22.8°F-5.1°C 14.2°F-9.9°C 69% 2.7 mph N4.3 kmh N 4.3 mph6.9 kmh 30.27 in1025.1 mb 0.00 in0.0 mm 0.00 in0.0 mm 0.00 in0.0 mm
11:34 AM 22.8°F-5.1°C 14.2°F-9.9°C 69% 2.5 mph NNE4.0 kmh NNE 4.7 mph7.6 kmh 30.27 in1025.1 mb 0.00 in0.0 mm 0.00 in0.0 mm 0.00 in0.0 mm
11:39 AM 22.8°F-5.1°C 14.2°F-9.9°C 69% 2.5 mph NNE4.0 kmh NNE 5.4 mph8.7 kmh 30.27 in1025.1 mb 0.00 in0.0 mm 0.00 in0.0 mm 0.00 in0.0 mm
11:44 AM 23.0°F-5.0°C 14.4°F-9.8°C 69% 4.5 mph N7.2 kmh N 7.8 mph12.6 kmh 30.27 in1025.1 mb 0.00 in0.0 mm 0.00 in0.0 mm 0.00 in0.0 mm
11:49 AM 23.0°F-5.0°C 14.0°F-10.0°C 68% 4.5 mph N7.2 kmh N 8.5 mph13.7 kmh 30.27 in1025.1 mb 0.00 in0.0 mm 0.00 in0.0 mm 0.00 in0.0 mm
11:54 AM 23.4°F-4.8°C 15.1°F-9.4°C 70% 3.1 mph N5.0 kmh N 4.9 mph7.9 kmh 30.27 in1025.1 mb 0.00 in0.0 mm 0.00 in0.0 mm 0.00 in0.0 mm
11:59 AM 23.5°F-4.7°C 14.5°F-9.7°C 68% 5.6 mph 9.0 kmh 8.1 mph13.0 kmh 30.27 in1025.1 mb 0.00 in0.0 mm 0.00 in0.0 mm 0.00 in0.0 mm
12:04 PM 23.5°F-4.7°C 14.5°F-9.7°C 68% 3.1 mph NNE5.0 kmh NNE 5.8 mph9.3 kmh 30.27 in1025.1 mb 0.00 in0.0 mm 0.00 in0.0 mm 0.00 in0.0 mm
12:09 PM 23.4°F-4.8°C 14.7°F-9.6°C 69% 2.9 mph NNW4.7 kmh NNW 5.4 mph8.7 kmh 30.27 in1025.1 mb 0.00 in0.0 mm 0.00 in0.0 mm 0.00 in0.0 mm
12:14 PM 23.2°F-4.9°C 14.5°F-9.7°C 69% 2.7 mph N4.3 kmh N 4.7 mph7.6 kmh 30.27 in1025.1 mb 0.00 in0.0 mm 0.00 in0.0 mm 0.00 in0.0 mm
12:19 PM 23.2°F-4.9°C 14.5°F-9.7°C 69% 3.4 mph N5.5 kmh N 6.7 mph10.8 kmh 30.27 in1025.1 mb 0.00 in0.0 mm 0.00 in0.0 mm 0.00 in0.0 mm
12:24 PM 23.2°F-4.9°C 14.5°F-9.7°C 69% 2.7 mph N4.3 kmh N 7.6 mph12.2 kmh 30.27 in1025.1 mb 0.00 in0.0 mm 0.00 in0.0 mm 0.00 in0.0 mm
12:29 PM 23.2°F-4.9°C 14.9°F-9.5°C 70% 2.2 mph N3.5 kmh N 4.5 mph7.2 kmh 30.27 in1025.1 mb 0.00 in0.0 mm 0.00 in0.0 mm 0.00 in0.0 mm
12:34 PM 23.4°F-4.8°C 15.1°F-9.4°C 70% 2.9 mph NNE4.7 kmh NNE 5.4 mph8.7 kmh 30.27 in1025.1 mb 0.00 in0.0 mm 0.00 in0.0 mm 0.00 in0.0 mm
12:39 PM 23.2°F-4.9°C 14.2°F-9.9°C 68% 4.0 mph N6.4 kmh N 6.9 mph11.1 kmh 30.27 in1025.1 mb 0.00 in0.0 mm 0.00 in0.0 mm 0.00 in0.0 mm
12:44 PM 23.2°F-4.9°C 14.2°F-9.9°C 68% 3.8 mph N6.1 kmh N 6.3 mph10.1 kmh 30.27 in1025.1 mb 0.00 in0.0 mm 0.00 in0.0 mm 0.00 in0.0 mm
12:49 PM 23.2°F-4.9°C 14.2°F-9.9°C 68% 2.5 mph N4.0 kmh N 4.0 mph6.4 kmh 30.26 in1024.7 mb 0.00 in0.0 mm 0.00 in0.0 mm 0.00 in0.0 mm
12:54 PM 23.5°F-4.7°C 14.5°F-9.7°C 68% 3.8 mph N6.1 kmh N 5.4 mph8.7 kmh 30.27 in1025.1 mb 0.00 in0.0 mm 0.00 in0.0 mm 0.00 in0.0 mm
12:59 PM 23.4°F-4.8°C 13.6°F-10.2°C 66% 2.7 mph N4.3 kmh N 4.3 mph6.9 kmh 30.26 in1024.7 mb 0.00 in0.0 mm 0.00 in0.0 mm 0.00 in0.0 mm
01:04 PM 23.4°F-4.8°C 13.6°F-10.2°C 66% 3.6 mph N5.8 kmh N 5.6 mph9.0 kmh 30.26 in1024.7 mb 0.00 in0.0 mm 0.00 in0.0 mm 0.00 in0.0 mm
01:09 PM 23.2°F-4.9°C 14.2°F-9.9°C 68% 2.9 mph N4.7 kmh N 5.6 mph9.0 kmh 30.26 in1024.7 mb 0.00 in0.0 mm 0.00 in0.0 mm 0.00 in0.0 mm
01:14 PM 23.4°F-4.8°C 14.4°F-9.8°C 68% 3.1 mph N5.0 kmh N 4.9 mph7.9 kmh 30.26 in1024.7 mb 0.00 in0.0 mm 0.00 in0.0 mm 0.00 in0.0 mm
01:19 PM 23.2°F-4.9°C 14.2°F-9.9°C 68% 3.1 mph N5.0 kmh N 4.3 mph6.9 kmh 30.26 in1024.7 mb 0.00 in0.0 mm 0.00 in0.0 mm 0.00 in0.0 mm
01:24 PM 23.2°F-4.9°C 14.5°F-9.7°C 69% 3.6 mph N5.8 kmh N 4.5 mph7.2 kmh 30.26 in1024.7 mb 0.00 in0.0 mm 0.00 in0.0 mm 0.00 in0.0 mm
01:29 PM 23.4°F-4.8°C 15.1°F-9.4°C 70% 2.0 mph SE3.2 kmh SE 5.4 mph8.7 kmh 30.26 in1024.7 mb 0.00 in0.0 mm 0.00 in0.0 mm 0.00 in0.0 mm
01:34 PM 23.2°F-4.9°C 14.5°F-9.7°C 69% 2.5 mph N4.0 kmh N 4.7 mph7.6 kmh 30.26 in1024.7 mb 0.00 in0.0 mm 0.00 in0.0 mm 0.00 in0.0 mm
01:39 PM 23.0°F-5.0°C 14.7°F-9.6°C 70% 2.7 mph N4.3 kmh N 4.5 mph7.2 kmh 30.26 in1024.7 mb 0.00 in0.0 mm 0.00 in0.0 mm 0.00 in0.0 mm
01:44 PM 23.2°F-4.9°C 15.3°F-9.3°C 71% 1.8 mph N2.9 kmh N 3.4 mph5.5 kmh 30.26 in1024.7 mb 0.00 in0.0 mm 0.00 in0.0 mm 0.00 in0.0 mm
01:49 PM 23.2°F-4.9°C 14.9°F-9.5°C 70% 2.7 mph N4.3 kmh N 3.8 mph6.1 kmh 30.26 in1024.7 mb 0.00 in0.0 mm 0.00 in0.0 mm 0.00 in0.0 mm
01:54 PM 23.0°F-5.0°C 14.7°F-9.6°C 70% 3.1 mph N5.0 kmh N 5.1 mph8.2 kmh 30.26 in1024.7 mb 0.00 in0.0 mm 0.00 in0.0 mm 0.00 in0.0 mm
01:59 PM 23.2°F-4.9°C 14.9°F-9.5°C 70% 2.0 mph N3.2 kmh N 3.4 mph5.5 kmh 30.26 in1024.7 mb 0.00 in0.0 mm 0.00 in0.0 mm 0.00 in0.0 mm
02:04 PM 23.4°F-4.8°C 15.1°F-9.4°C 70% 2.0 mph NNE3.2 kmh NNE 3.4 mph5.5 kmh 30.26 in1024.7 mb 0.00 in0.0 mm 0.00 in0.0 mm 0.00 in0.0 mm
02:09 PM 23.5°F-4.7°C 15.3°F-9.3°C 70% 1.3 mph N2.1 kmh N 2.0 mph3.2 kmh 30.26 in1024.7 mb 0.00 in0.0 mm 0.00 in0.0 mm 0.00 in0.0 mm
02:14 PM 23.4°F-4.8°C 14.7°F-9.6°C 69% 3.4 mph N5.5 kmh N 4.9 mph7.9 kmh 30.26 in1024.7 mb 0.00 in0.0 mm 0.00 in0.0 mm 0.00 in0.0 mm
02:19 PM 23.4°F-4.8°C 14.7°F-9.6°C 69% 2.5 mph N4.0 kmh N 4.9 mph7.9 kmh 30.26 in1024.7 mb 0.00 in0.0 mm 0.00 in0.0 mm 0.00 in0.0 mm
02:24 PM 23.4°F-4.8°C 15.1°F-9.4°C 70% 2.0 mph N3.2 kmh N 2.7 mph4.3 kmh 30.26 in1024.7 mb 0.00 in0.0 mm 0.00 in0.0 mm 0.00 in0.0 mm
02:29 PM 23.5°F-4.7°C 15.3°F-9.3°C 70% 3.8 mph N6.1 kmh N 5.1 mph8.2 kmh 30.26 in1024.7 mb 0.00 in0.0 mm 0.00 in0.0 mm 0.00 in0.0 mm
02:34 PM 23.2°F-4.9°C 14.9°F-9.5°C 70% 2.5 mph NNE4.0 kmh NNE 6.7 mph10.8 kmh 30.26 in1024.7 mb 0.00 in0.0 mm 0.00 in0.0 mm 0.00 in0.0 mm
02:39 PM 23.4°F-4.8°C 15.3°F-9.3°C 71% 2.2 mph N3.5 kmh N 3.1 mph5.0 kmh 30.26 in1024.7 mb 0.00 in0.0 mm 0.00 in0.0 mm 0.00 in0.0 mm
02:44 PM 23.5°F-4.7°C 15.3°F-9.3°C 70% 3.4 mph N5.5 kmh N 5.4 mph8.7 kmh 30.26 in1024.7 mb 0.00 in0.0 mm 0.00 in0.0 mm 0.00 in0.0 mm
02:49 PM 23.5°F-4.7°C 15.3°F-9.3°C 70% 1.6 mph E2.6 kmh E 3.4 mph5.5 kmh 30.26 in1024.7 mb 0.00 in0.0 mm 0.00 in0.0 mm 0.00 in0.0 mm
02:54 PM 23.4°F-4.8°C 15.3°F-9.3°C 71% 2.0 mph NNE3.2 kmh NNE 2.7 mph4.3 kmh 30.27 in1025.1 mb 0.00 in0.0 mm 0.00 in0.0 mm 0.00 in0.0 mm
02:59 PM 23.4°F-4.8°C 15.6°F-9.1°C 72% 2.0 mph N3.2 kmh N 4.7 mph7.6 kmh 30.27 in1025.1 mb 0.00 in0.0 mm 0.00 in0.0 mm 0.00 in0.0 mm
03:04 PM 23.4°F-4.8°C 15.3°F-9.3°C 71% 3.8 mph N6.1 kmh N 5.6 mph9.0 kmh 30.26 in1024.7 mb 0.00 in0.0 mm 0.00 in0.0 mm 0.00 in0.0 mm
03:09 PM 23.4°F-4.8°C 15.1°F-9.4°C 70% 2.5 mph N4.0 kmh N 3.8 mph6.1 kmh 30.26 in1024.7 mb 0.00 in0.0 mm 0.00 in0.0 mm 0.00 in0.0 mm
03:14 PM 23.5°F-4.7°C 15.3°F-9.3°C 70% 2.5 mph N4.0 kmh N 4.0 mph6.4 kmh 30.26 in1024.7 mb 0.00 in0.0 mm 0.00 in0.0 mm 0.00 in0.0 mm
03:19 PM 23.5°F-4.7°C 15.4°F-9.2°C 71% 4.3 mph 6.9 kmh 5.6 mph9.0 kmh 30.27 in1025.1 mb 0.00 in0.0 mm 0.00 in0.0 mm 0.00 in0.0 mm
03:24 PM 23.5°F-4.7°C 15.4°F-9.2°C 71% 1.6 mph SSE2.6 kmh SSE 3.4 mph5.5 kmh 30.26 in1024.7 mb 0.00 in0.0 mm 0.00 in0.0 mm 0.00 in0.0 mm
03:29 PM 23.9°F-4.5°C 16.2°F-8.8°C 72% 1.6 mph NNW2.6 kmh NNW 3.4 mph5.5 kmh 30.27 in1025.1 mb 0.00 in0.0 mm 0.00 in0.0 mm 0.00 in0.0 mm
03:34 PM 23.7°F-4.6°C 16.0°F-8.9°C 72% 2.2 mph N3.5 kmh N 3.6 mph5.8 kmh 30.27 in1025.1 mb 0.00 in0.0 mm 0.00 in0.0 mm 0.00 in0.0 mm
03:39 PM 23.4°F-4.8°C 16.3°F-8.7°C 74% 2.5 mph N4.0 kmh N 5.8 mph9.3 kmh 30.27 in1025.1 mb 0.00 in0.0 mm 0.00 in0.0 mm 0.00 in0.0 mm
03:44 PM 23.4°F-4.8°C 16.3°F-8.7°C 74% 1.1 mph N1.8 kmh N 2.0 mph3.2 kmh 30.27 in1025.1 mb 0.00 in0.0 mm 0.00 in0.0 mm 0.00 in0.0 mm
03:49 PM 23.4°F-4.8°C 16.5°F-8.6°C 75% 3.4 mph N5.5 kmh N 5.4 mph8.7 kmh 30.27 in1025.1 mb 0.00 in0.0 mm 0.00 in0.0 mm 0.00 in0.0 mm
03:54 PM 23.4°F-4.8°C 16.5°F-8.6°C 75% 2.2 mph NNE3.5 kmh NNE 3.6 mph5.8 kmh 30.27 in1025.1 mb 0.00 in0.0 mm 0.00 in0.0 mm 0.00 in0.0 mm
03:59 PM 23.4°F-4.8°C 16.5°F-8.6°C 75% 2.7 mph N4.3 kmh N 3.6 mph5.8 kmh 30.27 in1025.1 mb 0.00 in0.0 mm 0.00 in0.0 mm 0.00 in0.0 mm
04:04 PM 23.4°F-4.8°C 16.5°F-8.6°C 75% 2.5 mph N4.0 kmh N 4.0 mph6.4 kmh 30.28 in1025.4 mb 0.00 in0.0 mm 0.00 in0.0 mm 0.00 in0.0 mm
04:09 PM 23.2°F-4.9°C 16.7°F-8.5°C 76% 2.5 mph NNE4.0 kmh NNE 4.0 mph6.4 kmh 30.28 in1025.4 mb 0.00 in0.0 mm 0.00 in0.0 mm 0.00 in0.0 mm
04:14 PM 23.2°F-4.9°C 16.7°F-8.5°C 76% 4.3 mph NNE6.9 kmh NNE 5.6 mph9.0 kmh 30.28 in1025.4 mb 0.00 in0.0 mm 0.00 in0.0 mm 0.00 in0.0 mm
04:19 PM 23.2°F-4.9°C 16.7°F-8.5°C 76% 2.9 mph N4.7 kmh N 3.8 mph6.1 kmh 30.28 in1025.4 mb 0.00 in0.0 mm 0.00 in0.0 mm 0.00 in0.0 mm
04:24 PM 23.2°F-4.9°C 16.7°F-8.5°C 76% 3.1 mph N5.0 kmh N 5.6 mph9.0 kmh 30.28 in1025.4 mb 0.00 in0.0 mm 0.00 in0.0 mm 0.00 in0.0 mm
04:29 PM 23.0°F-5.0°C 16.5°F-8.6°C 76% 2.5 mph N4.0 kmh N 3.8 mph6.1 kmh 30.28 in1025.4 mb 0.00 in0.0 mm 0.00 in0.0 mm 0.00 in0.0 mm
04:34 PM 23.0°F-5.0°C 16.5°F-8.6°C 76% 2.2 mph N3.5 kmh N 3.4 mph5.5 kmh 30.28 in1025.4 mb 0.00 in0.0 mm 0.00 in0.0 mm 0.00 in0.0 mm
04:39 PM 23.0°F-5.0°C 16.9°F-8.4°C 77% 2.0 mph NNE3.2 kmh NNE 2.7 mph4.3 kmh 30.28 in1025.4 mb 0.00 in0.0 mm 0.00 in0.0 mm 0.00 in0.0 mm
04:44 PM 23.0°F-5.0°C 16.9°F-8.4°C 77% 2.0 mph N3.2 kmh N 2.7 mph4.3 kmh 30.28 in1025.4 mb 0.00 in0.0 mm 0.00 in0.0 mm 0.00 in0.0 mm
04:49 PM 23.0°F-5.0°C 16.9°F-8.4°C 77% 2.0 mph N3.2 kmh N 3.8 mph6.1 kmh 30.29 in1025.7 mb 0.00 in0.0 mm 0.00 in0.0 mm 0.00 in0.0 mm
04:54 PM 23.2°F-4.9°C 16.7°F-8.5°C 76% 3.6 mph N5.8 kmh N 5.6 mph9.0 kmh 30.29 in1025.7 mb 0.00 in0.0 mm 0.00 in0.0 mm 0.00 in0.0 mm
04:59 PM 23.0°F-5.0°C 16.3°F-8.7°C 75% 3.8 mph N6.1 kmh N 7.2 mph11.6 kmh 30.29 in1025.7 mb 0.00 in0.0 mm 0.00 in0.0 mm 0.00 in0.0 mm
05:04 PM 22.8°F-5.1°C 15.8°F-9.0°C 74% 1.8 mph N2.9 kmh N 3.1 mph5.0 kmh 30.29 in1025.7 mb 0.00 in0.0 mm 0.00 in0.0 mm 0.00 in0.0 mm
05:09 PM 22.6°F-5.2°C 15.6°F-9.1°C 74% 4.0 mph N6.4 kmh N 7.2 mph11.6 kmh 30.29 in1025.7 mb 0.00 in0.0 mm 0.00 in0.0 mm 0.00 in0.0 mm
05:14 PM 22.6°F-5.2°C 15.6°F-9.1°C 74% 2.0 mph N3.2 kmh N 3.4 mph5.5 kmh 30.29 in1025.7 mb 0.00 in0.0 mm 0.00 in0.0 mm 0.00 in0.0 mm
05:19 PM 22.8°F-5.1°C 15.8°F-9.0°C 74% 3.4 mph 5.5 kmh 5.8 mph9.3 kmh 30.29 in1025.7 mb 0.00 in0.0 mm 0.00 in0.0 mm 0.00 in0.0 mm
05:24 PM 22.6°F-5.2°C 15.6°F-9.1°C 74% 1.8 mph NNE2.9 kmh NNE 2.9 mph4.7 kmh 30.29 in1025.7 mb 0.00 in0.0 mm 0.00 in0.0 mm 0.00 in0.0 mm
05:29 PM 22.6°F-5.2°C 15.6°F-9.1°C 74% 2.5 mph NNE4.0 kmh NNE 4.5 mph7.2 kmh 30.29 in1025.7 mb 0.00 in0.0 mm 0.00 in0.0 mm 0.00 in0.0 mm
05:34 PM 22.6°F-5.2°C 15.6°F-9.1°C 74% 2.0 mph N3.2 kmh N 3.6 mph5.8 kmh 30.29 in1025.7 mb 0.00 in0.0 mm 0.00 in0.0 mm 0.00 in0.0 mm
05:39 PM 23.0°F-5.0°C 16.3°F-8.7°C 75% 1.8 mph N2.9 kmh N 2.9 mph4.7 kmh 30.29 in1025.7 mb 0.00 in0.0 mm 0.00 in0.0 mm 0.00 in0.0 mm
05:44 PM 23.5°F-4.7°C 16.7°F-8.5°C 75% 3.1 mph NW5.0 kmh NW 7.4 mph11.9 kmh 30.29 in1025.7 mb 0.00 in0.0 mm 0.00 in0.0 mm 0.00 in0.0 mm
05:49 PM 23.0°F-5.0°C 16.3°F-8.7°C 75% 3.6 mph 5.8 kmh 5.8 mph9.3 kmh 30.30 in1026.1 mb 0.00 in0.0 mm 0.00 in0.0 mm 0.00 in0.0 mm
05:54 PM 22.8°F-5.1°C 16.3°F-8.7°C 76% 0.9 mph NE1.4 kmh NE 2.0 mph3.2 kmh 30.30 in1026.1 mb 0.00 in0.0 mm 0.00 in0.0 mm 0.00 in0.0 mm
05:59 PM 23.0°F-5.0°C 16.5°F-8.6°C 76% 1.3 mph NNE2.1 kmh NNE 2.9 mph4.7 kmh 30.30 in1026.1 mb 0.00 in0.0 mm 0.00 in0.0 mm 0.00 in0.0 mm
06:04 PM 23.0°F-5.0°C 16.5°F-8.6°C 76% 4.0 mph N6.4 kmh N 5.8 mph9.3 kmh 30.30 in1026.1 mb 0.00 in0.0 mm 0.00 in0.0 mm 0.00 in0.0 mm
06:09 PM 23.0°F-5.0°C 16.3°F-8.7°C 75% 2.9 mph 4.7 kmh 4.0 mph6.4 kmh 30.30 in1026.1 mb 0.00 in0.0 mm 0.00 in0.0 mm 0.00 in0.0 mm
06:14 PM 23.0°F-5.0°C 16.5°F-8.6°C 76% 2.2 mph N3.5 kmh N 3.8 mph6.1 kmh 30.30 in1026.1 mb 0.00 in0.0 mm 0.00 in0.0 mm 0.00 in0.0 mm
06:19 PM 23.2°F-4.9°C 16.7°F-8.5°C 76% 1.6 mph N2.6 kmh N 2.2 mph3.5 kmh 30.31 in1026.4 mb 0.00 in0.0 mm 0.00 in0.0 mm 0.00 in0.0 mm
06:24 PM 23.2°F-4.9°C 16.7°F-8.5°C 76% 1.3 mph N2.1 kmh N 3.1 mph5.0 kmh 30.30 in1026.1 mb 0.00 in0.0 mm 0.00 in0.0 mm 0.00 in0.0 mm
06:29 PM 23.5°F-4.7°C 17.1°F-8.3°C 76% 2.2 mph NNW3.5 kmh NNW 3.6 mph5.8 kmh 30.30 in1026.1 mb 0.00 in0.0 mm 0.00 in0.0 mm 0.00 in0.0 mm
06:34 PM 23.5°F-4.7°C 17.1°F-8.3°C 76% 2.0 mph N3.2 kmh N 2.7 mph4.3 kmh 30.31 in1026.4 mb 0.00 in0.0 mm 0.00 in0.0 mm 0.00 in0.0 mm
06:39 PM 23.5°F-4.7°C 17.1°F-8.3°C 76% 3.4 mph N5.5 kmh N 5.8 mph9.3 kmh 30.31 in1026.4 mb 0.00 in0.0 mm 0.00 in0.0 mm 0.00 in0.0 mm
06:44 PM 23.5°F-4.7°C 17.1°F-8.3°C 76% 1.8 mph NE2.9 kmh NE 2.7 mph4.3 kmh 30.31 in1026.4 mb 0.00 in0.0 mm 0.00 in0.0 mm 0.00 in0.0 mm
06:49 PM 23.5°F-4.7°C 17.1°F-8.3°C 76% 1.6 mph N2.6 kmh N 2.7 mph4.3 kmh 30.31 in1026.4 mb 0.00 in0.0 mm 0.00 in0.0 mm 0.00 in0.0 mm
06:54 PM 23.7°F-4.6°C 17.6°F-8.0°C 77% 2.0 mph N3.2 kmh N 2.9 mph4.7 kmh 30.31 in1026.4 mb 0.00 in0.0 mm 0.00 in0.0 mm 0.00 in0.0 mm
06:59 PM 23.5°F-4.7°C 17.4°F-8.1°C 77% 1.3 mph NNE2.1 kmh NNE 1.8 mph2.9 kmh 30.31 in1026.4 mb 0.00 in0.0 mm 0.00 in0.0 mm 0.00 in0.0 mm
07:04 PM 23.5°F-4.7°C 17.4°F-8.1°C 77% 1.1 mph N1.8 kmh N 2.5 mph4.0 kmh 30.31 in1026.4 mb 0.00 in0.0 mm 0.00 in0.0 mm 0.00 in0.0 mm
07:09 PM 23.7°F-4.6°C 17.6°F-8.0°C 77% 2.7 mph NNE4.3 kmh NNE 4.3 mph6.9 kmh 30.31 in1026.4 mb 0.00 in0.0 mm 0.00 in0.0 mm 0.00 in0.0 mm
07:14 PM 23.7°F-4.6°C 18.1°F-7.7°C 79% 2.0 mph NNE3.2 kmh NNE 5.4 mph8.7 kmh 30.31 in1026.4 mb 0.00 in0.0 mm 0.00 in0.0 mm 0.00 in0.0 mm
07:19 PM 23.7°F-4.6°C 18.1°F-7.7°C 79% 1.8 mph 2.9 kmh 2.7 mph4.3 kmh 30.31 in1026.4 mb 0.00 in0.0 mm 0.00 in0.0 mm 0.00 in0.0 mm
07:24 PM 23.7°F-4.6°C 18.1°F-7.7°C 79% 1.6 mph NNE2.6 kmh NNE 2.2 mph3.5 kmh 30.31 in1026.4 mb 0.00 in0.0 mm 0.00 in0.0 mm 0.00 in0.0 mm
07:29 PM 23.7°F-4.6°C 18.1°F-7.7°C 79% 2.7 mph N4.3 kmh N 4.0 mph6.4 kmh 30.31 in1026.4 mb 0.00 in0.0 mm 0.00 in0.0 mm 0.00 in0.0 mm
07:34 PM 23.5°F-4.7°C 18.0°F-7.8°C 79% 2.7 mph N4.3 kmh N 4.7 mph7.6 kmh 30.31 in1026.4 mb 0.00 in0.0 mm 0.00 in0.0 mm 0.00 in0.0 mm
07:39 PM 23.5°F-4.7°C 17.4°F-8.1°C 77% 3.8 mph NNE6.1 kmh NNE 6.9 mph11.1 kmh 30.32 in1026.8 mb 0.00 in0.0 mm 0.00 in0.0 mm 0.00 in0.0 mm
07:44 PM 23.5°F-4.7°C 17.4°F-8.1°C 77% 1.6 mph NNE2.6 kmh NNE 2.2 mph3.5 kmh 30.32 in1026.8 mb 0.00 in0.0 mm 0.00 in0.0 mm 0.00 in0.0 mm
07:49 PM 23.5°F-4.7°C 17.1°F-8.3°C 76% 3.6 mph N5.8 kmh N 5.8 mph9.3 kmh 30.32 in1026.8 mb 0.00 in0.0 mm 0.00 in0.0 mm 0.00 in0.0 mm
07:54 PM 23.4°F-4.8°C 16.9°F-8.4°C 76% 2.9 mph N4.7 kmh N 4.7 mph7.6 kmh 30.32 in1026.8 mb 0.00 in0.0 mm 0.00 in0.0 mm 0.00 in0.0 mm
07:59 PM 23.4°F-4.8°C 16.9°F-8.4°C 76% 2.9 mph 4.7 kmh 4.3 mph6.9 kmh 30.32 in1026.8 mb 0.00 in0.0 mm 0.00 in0.0 mm 0.00 in0.0 mm
08:04 PM 23.4°F-4.8°C 16.9°F-8.4°C 76% 2.2 mph N3.5 kmh N 3.6 mph5.8 kmh 30.32 in1026.8 mb 0.00 in0.0 mm 0.00 in0.0 mm 0.00 in0.0 mm
08:09 PM 23.5°F-4.7°C 17.1°F-8.3°C 76% 2.0 mph NNW3.2 kmh NNW 3.6 mph5.8 kmh 30.33 in1027.1 mb 0.00 in0.0 mm 0.00 in0.0 mm 0.00 in0.0 mm
08:14 PM 23.4°F-4.8°C 16.5°F-8.6°C 75% 3.4 mph N5.5 kmh N 4.9 mph7.9 kmh 30.33 in1027.1 mb 0.00 in0.0 mm 0.00 in0.0 mm 0.00 in0.0 mm
08:19 PM 23.4°F-4.8°C 16.5°F-8.6°C 75% 2.5 mph N4.0 kmh N 4.5 mph7.2 kmh 30.33 in1027.1 mb 0.00 in0.0 mm 0.00 in0.0 mm 0.00 in0.0 mm
08:24 PM 23.4°F-4.8°C 16.5°F-8.6°C 75% 2.5 mph N4.0 kmh N 3.8 mph6.1 kmh 30.33 in1027.1 mb 0.00 in0.0 mm 0.00 in0.0 mm 0.00 in0.0 mm
08:29 PM 23.4°F-4.8°C 16.5°F-8.6°C 75% 3.4 mph N5.5 kmh N 5.8 mph9.3 kmh 30.33 in1027.1 mb 0.00 in0.0 mm 0.00 in0.0 mm 0.00 in0.0 mm
08:34 PM 23.4°F-4.8°C 16.5°F-8.6°C 75% 2.7 mph N4.3 kmh N 3.6 mph5.8 kmh 30.33 in1027.1 mb 0.00 in0.0 mm 0.00 in0.0 mm 0.00 in0.0 mm
08:39 PM 23.4°F-4.8°C 16.5°F-8.6°C 75% 3.4 mph N5.5 kmh N 5.1 mph8.2 kmh 30.34 in1027.4 mb 0.00 in0.0 mm 0.00 in0.0 mm 0.00 in0.0 mm
08:44 PM 23.4°F-4.8°C 16.5°F-8.6°C 75% 2.7 mph N4.3 kmh N 3.6 mph5.8 kmh 30.34 in1027.4 mb 0.00 in0.0 mm 0.00 in0.0 mm 0.00 in0.0 mm
08:49 PM 23.5°F-4.7°C 16.7°F-8.5°C 75% 2.2 mph N3.5 kmh N 6.5 mph10.5 kmh 30.34 in1027.4 mb 0.00 in0.0 mm 0.00 in0.0 mm 0.00 in0.0 mm
08:54 PM 23.5°F-4.7°C 16.7°F-8.5°C 75% 1.6 mph N2.6 kmh N 3.8 mph6.1 kmh 30.34 in1027.4 mb 0.00 in0.0 mm 0.00 in0.0 mm 0.00 in0.0 mm
08:59 PM 23.5°F-4.7°C 16.7°F-8.5°C 75% 2.7 mph NE4.3 kmh NE 3.8 mph6.1 kmh 30.34 in1027.4 mb 0.00 in0.0 mm 0.00 in0.0 mm 0.00 in0.0 mm
09:04 PM 23.5°F-4.7°C 16.7°F-8.5°C 75% 3.6 mph N5.8 kmh N 5.4 mph8.7 kmh 30.34 in1027.4 mb 0.00 in0.0 mm 0.00 in0.0 mm 0.00 in0.0 mm
09:09 PM 23.5°F-4.7°C 16.7°F-8.5°C 75% 3.4 mph NNW5.5 kmh NNW 5.6 mph9.0 kmh 30.34 in1027.4 mb 0.00 in0.0 mm 0.00 in0.0 mm 0.00 in0.0 mm
09:14 PM 23.5°F-4.7°C 16.7°F-8.5°C 75% 1.6 mph NNE2.6 kmh NNE 2.7 mph4.3 kmh 30.34 in1027.4 mb 0.00 in0.0 mm 0.00 in0.0 mm 0.00 in0.0 mm
09:19 PM 23.5°F-4.7°C 17.1°F-8.3°C 76% 1.3 mph NNE2.1 kmh NNE 1.8 mph2.9 kmh 30.34 in1027.4 mb 0.00 in0.0 mm 0.00 in0.0 mm 0.00 in0.0 mm
09:24 PM 23.5°F-4.7°C 16.7°F-8.5°C 75% 3.1 mph N5.0 kmh N 4.5 mph7.2 kmh 30.34 in1027.4 mb 0.00 in0.0 mm 0.00 in0.0 mm 0.00 in0.0 mm
09:29 PM 23.4°F-4.8°C 16.5°F-8.6°C 75% 2.2 mph NNE3.5 kmh NNE 4.3 mph6.9 kmh 30.34 in1027.4 mb 0.00 in0.0 mm 0.00 in0.0 mm 0.00 in0.0 mm
09:34 PM 23.4°F-4.8°C 16.9°F-8.4°C 76% 2.7 mph NNE4.3 kmh NNE 6.5 mph10.5 kmh 30.34 in1027.4 mb 0.00 in0.0 mm 0.00 in0.0 mm 0.00 in0.0 mm
09:39 PM 23.2°F-4.9°C 16.5°F-8.6°C 75% 3.6 mph N5.8 kmh N 5.8 mph9.3 kmh 30.34 in1027.4 mb 0.00 in0.0 mm 0.00 in0.0 mm 0.00 in0.0 mm
09:44 PM 23.0°F-5.0°C 16.3°F-8.7°C 75% 3.8 mph N6.1 kmh N 5.1 mph8.2 kmh 30.35 in1027.8 mb 0.00 in0.0 mm 0.00 in0.0 mm 0.00 in0.0 mm
09:49 PM 23.0°F-5.0°C 16.5°F-8.6°C 76% 2.5 mph NNE4.0 kmh NNE 3.6 mph5.8 kmh 30.35 in1027.8 mb 0.00 in0.0 mm 0.00 in0.0 mm 0.00 in0.0 mm
09:54 PM 23.0°F-5.0°C 16.3°F-8.7°C 75% 2.9 mph NNE4.7 kmh NNE 4.7 mph7.6 kmh 30.35 in1027.8 mb 0.00 in0.0 mm 0.00 in0.0 mm 0.00 in0.0 mm
09:59 PM 23.0°F-5.0°C 16.3°F-8.7°C 75% 2.9 mph N4.7 kmh N 4.7 mph7.6 kmh 30.35 in1027.8 mb 0.00 in0.0 mm 0.00 in0.0 mm 0.00 in0.0 mm
10:04 PM 23.0°F-5.0°C 16.5°F-8.6°C 76% 2.7 mph N4.3 kmh N 4.3 mph6.9 kmh 30.35 in1027.8 mb 0.00 in0.0 mm 0.00 in0.0 mm 0.00 in0.0 mm
10:09 PM 23.0°F-5.0°C 16.5°F-8.6°C 76% 2.0 mph N3.2 kmh N 2.7 mph4.3 kmh 30.35 in1027.8 mb 0.00 in0.0 mm 0.00 in0.0 mm 0.00 in0.0 mm
10:14 PM 22.8°F-5.1°C 16.2°F-8.8°C 75% 2.5 mph NNW4.0 kmh NNW 3.6 mph5.8 kmh 30.35 in1027.8 mb 0.00 in0.0 mm 0.00 in0.0 mm 0.00 in0.0 mm
10:19 PM 22.8°F-5.1°C 16.3°F-8.7°C 76% 2.7 mph NE4.3 kmh NE 4.7 mph7.6 kmh 30.35 in1027.8 mb 0.00 in0.0 mm 0.00 in0.0 mm 0.00 in0.0 mm
10:24 PM 22.8°F-5.1°C 16.2°F-8.8°C 75% 4.0 mph N6.4 kmh N 5.6 mph9.0 kmh 30.36 in1028.1 mb 0.00 in0.0 mm 0.00 in0.0 mm 0.00 in0.0 mm
10:29 PM 22.6°F-5.2°C 16.0°F-8.9°C 75% 2.5 mph NNE4.0 kmh NNE 4.5 mph7.2 kmh 30.36 in1028.1 mb 0.00 in0.0 mm 0.00 in0.0 mm 0.00 in0.0 mm
10:34 PM 22.6°F-5.2°C 16.0°F-8.9°C 75% 2.9 mph N4.7 kmh N 4.0 mph6.4 kmh 30.36 in1028.1 mb 0.00 in0.0 mm 0.00 in0.0 mm 0.00 in0.0 mm
10:39 PM 22.6°F-5.2°C 16.0°F-8.9°C 75% 2.7 mph N4.3 kmh N 3.6 mph5.8 kmh 30.35 in1027.8 mb 0.00 in0.0 mm 0.00 in0.0 mm 0.00 in0.0 mm
10:44 PM 22.6°F-5.2°C 16.0°F-8.9°C 75% 1.3 mph N2.1 kmh N 1.8 mph2.9 kmh 30.36 in1028.1 mb 0.00 in0.0 mm 0.00 in0.0 mm 0.00 in0.0 mm
10:49 PM 22.6°F-5.2°C 16.0°F-8.9°C 75% 3.1 mph N5.0 kmh N 4.7 mph7.6 kmh 30.36 in1028.1 mb 0.00 in0.0 mm 0.00 in0.0 mm 0.00 in0.0 mm
10:54 PM 22.6°F-5.2°C 16.0°F-8.9°C 75% 1.8 mph N2.9 kmh N 2.2 mph3.5 kmh 30.36 in1028.1 mb 0.00 in0.0 mm 0.00 in0.0 mm 0.00 in0.0 mm
10:59 PM 22.6°F-5.2°C 16.0°F-8.9°C 75% 1.3 mph N2.1 kmh N 1.8 mph2.9 kmh 30.36 in1028.1 mb 0.00 in0.0 mm 0.00 in0.0 mm 0.00 in0.0 mm
11:04 PM 22.6°F-5.2°C 15.6°F-9.1°C 74% 2.9 mph N4.7 kmh N 4.0 mph6.4 kmh 30.36 in1028.1 mb 0.00 in0.0 mm 0.00 in0.0 mm 0.00 in0.0 mm
11:09 PM 22.6°F-5.2°C 15.6°F-9.1°C 74% 1.6 mph N2.6 kmh N 2.5 mph4.0 kmh 30.36 in1028.1 mb 0.00 in0.0 mm 0.00 in0.0 mm 0.00 in0.0 mm
11:14 PM 22.8°F-5.1°C 15.8°F-9.0°C 74% 2.0 mph N3.2 kmh N 2.9 mph4.7 kmh 30.36 in1028.1 mb 0.00 in0.0 mm 0.00 in0.0 mm 0.00 in0.0 mm
11:19 PM 22.8°F-5.1°C 15.1°F-9.4°C 72% 2.0 mph NNE3.2 kmh NNE 3.6 mph5.8 kmh 30.36 in1028.1 mb 0.00 in0.0 mm 0.00 in0.0 mm 0.00 in0.0 mm
11:24 PM 22.8°F-5.1°C 15.8°F-9.0°C 74% 2.5 mph NNE4.0 kmh NNE 4.9 mph7.9 kmh 30.36 in1028.1 mb 0.00 in0.0 mm 0.00 in0.0 mm 0.00 in0.0 mm
11:29 PM 22.8°F-5.1°C 15.1°F-9.4°C 72% 2.2 mph N3.5 kmh N 4.3 mph6.9 kmh 30.36 in1028.1 mb 0.00 in0.0 mm 0.00 in0.0 mm 0.00 in0.0 mm
11:34 PM 22.8°F-5.1°C 15.1°F-9.4°C 72% 2.0 mph NNE3.2 kmh NNE 3.8 mph6.1 kmh 30.36 in1028.1 mb 0.00 in0.0 mm 0.00 in0.0 mm 0.00 in0.0 mm
11:39 PM 22.8°F-5.1°C 15.1°F-9.4°C 72% 1.8 mph NNE2.9 kmh NNE 3.1 mph5.0 kmh 30.36 in1028.1 mb 0.00 in0.0 mm 0.00 in0.0 mm 0.00 in0.0 mm
11:44 PM 22.8°F-5.1°C 15.1°F-9.4°C 72% 2.9 mph N4.7 kmh N 4.0 mph6.4 kmh 30.36 in1028.1 mb 0.00 in0.0 mm 0.00 in0.0 mm 0.00 in0.0 mm
11:49 PM 22.8°F-5.1°C 15.8°F-9.0°C 74% 1.8 mph NE2.9 kmh NE 3.1 mph5.0 kmh 30.36 in1028.1 mb 0.00 in0.0 mm 0.00 in0.0 mm 0.00 in0.0 mm
11:54 PM 23.0°F-5.0°C 15.3°F-9.3°C 72% 2.9 mph N4.7 kmh N 4.0 mph6.4 kmh 30.37 in1028.4 mb 0.00 in0.0 mm 0.00 in0.0 mm 0.00 in0.0 mm
11:59 PM 23.0°F-5.0°C 15.3°F-9.3°C 72% 2.2 mph NNE3.5 kmh NNE 3.6 mph5.8 kmh 30.37 in1028.4 mb 0.00 in0.0 mm 0.00 in0.0 mm 0.00 in0.0 mm